Time;durP1;ratioP1;P1;durP2;ratioP2;P2;SDS_P1;SDS_P2;PMS_P1;PMS_P2;Temp;Humidity;BMP_temperature;BMP_pressure;BME280_temperature;BME280_humidity;BME280_pressure;Samples;Min_cycle;Max_cycle;Signal;HPM_P1;HPM_P2
2021/05/27 00:04:16;;;;;;;18.52;10.80;;;11.20;99.90;;;;;;10415733;28;20383;-60
2021/05/27 00:09:18;;;;;;;20.30;12.02;;;11.20;99.90;;;;;;10415734;28;20052;-60
2021/05/27 00:14:21;;;;;;;32.13;13.50;;;11.20;99.90;;;;;;10415601;28;20086;-61
2021/05/27 00:19:23;;;;;;;22.15;11.52;;;11.20;99.90;;;;;;10415677;28;20048;-61
2021/05/27 00:24:25;;;;;;;25.40;10.60;;;11.20;99.90;;;;;;10414878;28;20044;-61
2021/05/27 00:29:27;;;;;;;21.05;11.55;;;11.20;99.90;;;;;;10415208;28;20045;-61
2021/05/27 00:34:29;;;;;;;24.48;11.98;;;11.20;99.90;;;;;;10415312;28;20049;-60
2021/05/27 00:39:31;;;;;;;19.65;10.93;;;11.20;99.90;;;;;;10414530;28;20441;-61
2021/05/27 00:44:33;;;;;;;20.52;11.55;;;11.10;99.90;;;;;;10413637;28;20056;-60
2021/05/27 00:49:36;;;;;;;22.05;10.25;;;11.10;99.90;;;;;;10414812;28;20151;-60
2021/05/27 00:54:38;;;;;;;19.95;11.45;;;11.00;99.90;;;;;;10414480;28;20044;-61
2021/05/27 00:59:40;;;;;;;14.40;9.55;;;10.90;99.90;;;;;;10413334;28;20051;-61
2021/05/27 01:04:42;;;;;;;25.08;12.35;;;10.90;99.90;;;;;;10414082;28;20045;-62
2021/05/27 01:09:56;;;;;;;19.58;11.35;;;10.90;99.90;;;;;;10414373;28;20124;-62
2021/05/27 01:20:19;;;;;;;29.15;14.25;;;10.80;99.90;;;;;;10414212;28;20051;-61
2021/05/27 01:25:21;;;;;;;28.73;12.90;;;10.70;99.90;;;;;;10413863;28;20063;-60
2021/05/27 01:30:24;;;;;;;24.50;12.80;;;10.60;99.90;;;;;;10420311;28;20485;-60
2021/05/27 01:35:26;;;;;;;28.52;11.50;;;10.60;99.90;;;;;;10420947;28;20049;-60
2021/05/27 01:40:28;;;;;;;24.38;11.90;;;10.60;99.90;;;;;;10421341;28;20045;-61
2021/05/27 01:45:31;;;;;;;31.70;13.15;;;10.50;99.90;;;;;;10420315;28;20041;-60
2021/05/27 01:50:33;;;;;;;24.98;12.93;;;10.50;99.90;;;;;;10420522;28;20485;-62
2021/05/27 01:55:45;;;;;;;28.15;12.95;;;10.50;99.90;;;;;;10419946;28;20046;-61
2021/05/27 02:00:47;;;;;;;32.80;11.65;;;10.50;99.90;;;;;;10418717;28;20056;-60
2021/05/27 02:05:49;;;;;;;26.75;12.95;;;10.40;99.90;;;;;;10419560;28;20049;-60
2021/05/27 02:10:51;;;;;;;26.20;12.60;;;10.30;99.90;;;;;;10419631;28;20049;-61
2021/05/27 02:15:53;;;;;;;26.30;12.68;;;10.20;99.90;;;;;;10419413;28;20052;-61
2021/05/27 02:20:55;;;;;;;28.95;12.55;;;10.20;99.90;;;;;;10419219;28;20045;-61
2021/05/27 02:25:57;;;;;;;29.08;12.35;;;10.20;99.90;;;;;;10419058;28;20042;-60
2021/05/27 02:30:59;;;;;;;33.78;13.73;;;10.20;99.90;;;;;;10419098;28;20049;-61
2021/05/27 02:36:01;;;;;;;33.80;13.30;;;10.10;99.90;;;;;;10418332;28;20037;-60
2021/05/27 02:41:05;;;;;;;27.80;14.60;;;10.10;99.90;;;;;;10418557;28;20045;-60
2021/05/27 02:46:07;;;;;;;27.95;13.05;;;10.00;99.90;;;;;;10416924;28;20052;-60
2021/05/27 02:51:24;;;;;;;28.52;14.60;;;10.00;99.90;;;;;;10418056;28;20486;-62
2021/05/27 02:56:27;;;;;;;24.48;11.88;;;10.00;99.90;;;;;;10416510;28;20079;-63
2021/05/27 03:01:29;;;;;;;25.17;13.20;;;10.00;99.90;;;;;;10417704;28;20053;-60
2021/05/27 03:06:31;;;;;;;27.70;13.73;;;9.90;99.90;;;;;;10417376;28;20041;-60
2021/05/27 03:11:32;;;;;;;30.63;13.82;;;9.90;99.90;;;;;;10417747;28;20052;-60
2021/05/27 03:16:35;;;;;;;32.20;13.85;;;9.90;99.90;;;;;;10417355;28;20056;-59
2021/05/27 03:21:36;;;;;;;29.73;15.15;;;9.90;99.90;;;;;;10417240;28;20362;-60
2021/05/27 03:26:39;;;;;;;36.10;15.10;;;9.90;99.90;;;;;;10416959;28;20048;-60
2021/05/27 03:31:40;;;;;;;31.77;14.63;;;9.90;99.90;;;;;;10416787;28;20056;-61
2021/05/27 03:36:42;;;;;;;33.63;13.93;;;9.90;99.90;;;;;;10416600;28;20044;-60
2021/05/27 03:41:44;;;;;;;28.73;13.55;;;9.80;99.90;;;;;;10415711;28;20045;-60
2021/05/27 03:46:46;;;;;;;24.63;12.20;;;9.70;99.90;;;;;;10416120;28;20382;-61
2021/05/27 03:51:48;;;;;;;31.60;14.70;;;9.80;99.90;;;;;;10415892;28;20049;-60
2021/05/27 03:56:50;;;;;;;29.13;14.82;;;9.70;99.90;;;;;;10416035;28;20042;-64
2021/05/27 04:01:52;;;;;;;25.52;13.63;;;9.80;99.90;;;;;;10416135;28;20049;-61
2021/05/27 04:07:15;;;;;;;35.72;13.98;;;9.80;99.90;;;;;;10415818;28;20057;-60
2021/05/27 04:17:38;;;;;;;37.72;14.30;;;9.70;99.90;;;;;;10415442;28;20042;-60
2021/05/27 04:22:47;;;;;;;34.80;14.50;;;9.70;99.90;;;;;;10415285;28;20037;-60
2021/05/27 04:27:49;;;;;;;30.83;13.13;;;9.70;99.90;;;;;;10415805;28;20073;-60
2021/05/27 04:33:07;;;;;;;23.83;13.35;;;9.70;99.90;;;;;;10415223;28;20393;-60
2021/05/27 04:38:12;;;;;;;30.75;13.10;;;9.80;99.90;;;;;;10415065;28;20380;-60
2021/05/27 04:43:16;;;;;;;25.05;11.80;;;9.70;99.90;;;;;;10413923;28;20494;-60
2021/05/27 04:48:18;;;;;;;31.48;13.32;;;9.60;99.90;;;;;;10414543;28;20053;-61
2021/05/27 04:53:22;;;;;;;26.40;11.85;;;9.70;99.90;;;;;;10414418;28;20549;-62
2021/05/27 04:58:25;;;;;;;25.58;12.38;;;9.70;99.90;;;;;;10414775;28;20049;-60
2021/05/27 05:03:27;;;;;;;29.83;12.68;;;9.60;99.90;;;;;;10418670;28;20049;-61
2021/05/27 05:08:29;;;;;;;24.70;13.00;;;9.70;99.90;;;;;;10422314;28;20056;-62
2021/05/27 05:13:31;;;;;;;27.90;13.98;;;9.70;99.90;;;;;;10421104;28;20045;-60
2021/05/27 05:18:33;;;;;;;26.17;13.60;;;9.70;99.90;;;;;;10422392;28;20048;-60
2021/05/27 05:23:34;;;;;;;30.33;13.38;;;9.60;99.90;;;;;;10422130;28;20049;-61
2021/05/27 05:28:36;;;;;;;28.23;14.50;;;9.70;99.90;;;;;;10421687;28;20053;-60
2021/05/27 05:33:38;;;;;;;27.02;11.07;;;9.70;99.90;;;;;;10421583;28;20041;-60
2021/05/27 05:38:40;;;;;;;33.50;12.40;;;9.70;99.90;;;;;;10420208;28;20055;-60
2021/05/27 05:43:43;;;;;;;25.50;10.85;;;9.80;99.90;;;;;;10421211;28;20041;-60
2021/05/27 05:48:44;;;;;;;26.58;12.20;;;9.70;99.90;;;;;;10420981;28;20057;-60
2021/05/27 05:53:46;;;;;;;27.75;11.13;;;9.80;99.90;;;;;;10420756;28;20041;-61
2021/05/27 05:58:48;;;;;;;29.52;11.57;;;9.80;99.90;;;;;;10420752;28;20042;-60
2021/05/27 06:03:52;;;;;;;23.33;11.07;;;9.80;99.90;;;;;;10420486;28;20042;-60
2021/05/27 06:08:56;;;;;;;16.05;9.45;;;9.80;99.90;;;;;;10420262;28;20045;-60
2021/05/27 06:13:58;;;;;;;29.38;11.25;;;9.80;99.90;;;;;;10419700;28;20045;-61
2021/05/27 06:19:00;;;;;;;23.38;10.23;;;9.80;99.90;;;;;;10419781;28;20048;-60
2021/05/27 06:24:03;;;;;;;21.40;10.13;;;9.80;99.90;;;;;;10419491;28;20049;-60
2021/05/27 06:29:05;;;;;;;25.23;10.95;;;9.80;99.90;;;;;;10419347;28;20045;-60
2021/05/27 06:34:07;;;;;;;28.98;11.63;;;9.80;99.90;;;;;;10419265;28;20072;-60
2021/05/27 06:39:08;;;;;;;21.80;9.52;;;9.90;99.90;;;;;;10418807;28;20385;-61
2021/05/27 06:44:10;;;;;;;29.00;10.30;;;9.90;99.90;;;;;;10418602;28;20397;-60
2021/05/27 06:49:12;;;;;;;27.48;11.00;;;9.90;99.90;;;;;;10417468;28;20045;-60
2021/05/27 06:54:14;;;;;;;19.27;10.30;;;10.00;99.90;;;;;;10418230;28;20471;-60
2021/05/27 06:59:16;;;;;;;24.48;10.73;;;10.00;99.90;;;;;;10418015;28;20371;-61
2021/05/27 07:04:18;;;;;;;24.65;10.20;;;9.90;99.90;;;;;;10417916;28;20041;-62
2021/05/27 07:09:20;;;;;;;19.42;10.20;;;10.00;99.90;;;;;;10418280;28;20400;-59
2021/05/27 07:14:22;;;;;;;21.90;10.57;;;10.00;99.90;;;;;;10417571;28;20048;-60
2021/05/27 07:19:24;;;;;;;21.30;9.82;;;10.00;99.90;;;;;;10417447;28;20048;-60
2021/05/27 07:24:26;;;;;;;27.95;10.68;;;10.00;99.90;;;;;;10398865;28;20045;-60
2021/05/27 07:29:29;;;;;;;21.15;9.57;;;10.00;99.90;;;;;;10416889;28;20053;-61
2021/05/27 07:34:34;;;;;;;23.63;8.75;;;10.10;99.90;;;;;;10415699;28;20044;-60
2021/05/27 07:39:36;;;;;;;27.40;10.63;;;10.10;99.90;;;;;;10415478;28;20045;-60
2021/05/27 07:44:38;;;;;;;21.73;11.05;;;10.00;99.90;;;;;;10416153;28;20068;-60
2021/05/27 07:49:40;;;;;;;25.27;10.20;;;10.10;99.90;;;;;;10416081;28;20063;-60
2021/05/27 07:54:43;;;;;;;23.10;10.95;;;10.20;99.90;;;;;;10416258;28;20045;-60
2021/05/27 07:59:45;;;;;;;23.80;9.65;;;10.00;99.90;;;;;;10416465;28;20393;-60
2021/05/27 08:04:48;;;;;;;20.48;8.50;;;10.20;99.90;;;;;;10415692;28;20385;-61
2021/05/27 08:09:50;;;;;;;20.83;8.43;;;10.20;99.90;;;;;;10416489;28;20049;-60
2021/05/27 08:14:52;;;;;;;17.05;8.88;;;10.20;99.90;;;;;;10415371;28;20052;-61
2021/05/27 08:19:54;;;;;;;21.55;9.57;;;10.20;99.90;;;;;;10415486;28;20045;-60
2021/05/27 08:24:56;;;;;;;22.98;8.20;;;10.20;99.90;;;;;;10415345;28;20049;-60
2021/05/27 08:30:00;;;;;;;20.20;8.95;;;10.30;99.90;;;;;;10415169;28;20474;-61
2021/05/27 08:35:04;;;;;;;31.50;9.93;;;10.30;99.90;;;;;;10415617;28;20049;-60
2021/05/27 08:40:07;;;;;;;17.70;8.05;;;10.30;99.90;;;;;;10423486;28;20045;-61
2021/05/27 08:45:11;;;;;;;21.15;8.68;;;10.30;99.90;;;;;;10423403;28;20045;-60
2021/05/27 08:50:13;;;;;;;18.05;7.43;;;10.20;99.90;;;;;;10405222;28;20057;-60
2021/05/27 08:55:15;;;;;;;20.40;9.20;;;10.30;99.90;;;;;;10422567;28;20068;-60
2021/05/27 09:00:18;;;;;;;20.95;8.10;;;10.40;99.90;;;;;;10422204;28;20045;-61
2021/05/27 09:05:21;;;;;;;19.80;9.25;;;10.40;99.90;;;;;;10422115;28;20052;-60
2021/05/27 09:10:46;;;;;;;19.70;9.77;;;10.40;99.90;;;;;;10421349;28;20041;-60
2021/05/27 09:15:51;;;;;;;19.08;9.13;;;10.40;99.90;;;;;;10421921;28;20081;-61
2021/05/27 09:20:53;;;;;;;17.95;7.97;;;10.50;99.90;;;;;;10422285;28;20128;-62
2021/05/27 09:26:11;;;;;;;15.55;7.45;;;10.70;99.90;;;;;;10421272;28;20113;-61
2021/05/27 09:31:24;;;;;;;16.05;8.25;;;10.60;99.90;;;;;;10421437;28;20045;-60
2021/05/27 09:36:26;;;;;;;14.77;7.93;;;10.70;99.90;;;;;;10421192;28;20049;-61
2021/05/27 09:41:34;;;;;;;19.20;8.23;;;10.70;99.90;;;;;;10421189;28;20045;-60
2021/05/27 09:46:54;;;;;;;17.15;8.35;;;10.80;99.90;;;;;;10420059;28;20124;-61
2021/05/27 09:51:57;;;;;;;24.48;8.98;;;10.90;99.90;;;;;;10421049;28;20049;-61
2021/05/27 09:56:59;;;;;;;20.35;7.47;;;11.00;99.90;;;;;;10421105;28;20084;-60
2021/05/27 10:02:15;;;;;;;19.88;7.82;;;10.80;99.90;;;;;;10420526;28;20045;-60
2021/05/27 10:07:46;;;;;;;13.25;7.95;;;10.70;99.90;;;;;;10420274;28;20045;-60
2021/05/27 10:13:09;;;;;;;20.02;8.45;;;10.70;99.90;;;;;;10420164;28;20045;-60
2021/05/27 10:18:17;;;;;;;16.83;9.10;;;10.90;99.90;;;;;;10419797;28;20389;-59
2021/05/27 10:23:19;;;;;;;24.35;8.38;;;10.90;99.90;;;;;;10419936;28;20041;-61
2021/05/27 10:28:21;;;;;;;21.98;8.38;;;11.00;99.90;;;;;;10419697;28;20051;-60
2021/05/27 10:33:24;;;;;;;18.25;9.18;;;10.90;99.90;;;;;;10418232;28;20046;-61
2021/05/27 10:38:39;;;;;;;23.52;8.85;;;11.10;99.90;;;;;;10417883;28;20084;-60
2021/05/27 10:43:59;;;;;;;18.80;8.02;;;11.00;99.90;;;;;;10418835;28;20499;-59
2021/05/27 10:49:01;;;;;;;27.00;8.95;;;11.00;99.90;;;;;;10418785;28;20053;-59
2021/05/27 10:54:05;;;;;;;17.13;8.15;;;11.10;99.90;;;;;;10418474;28;20041;-60
2021/05/27 10:59:20;;;;;;;26.02;8.85;;;11.20;99.90;;;;;;10417380;28;20037;-61
2021/05/27 11:04:23;;;;;;;27.00;10.75;;;11.20;99.90;;;;;;10418423;28;20043;-60
2021/05/27 11:09:34;;;;;;;20.50;8.77;;;11.20;99.90;;;;;;10417758;28;20057;-61
2021/05/27 11:14:47;;;;;;;23.00;9.47;;;11.20;99.90;;;;;;10417640;28;20581;-61
2021/05/27 11:25:26;;;;;;;38.80;10.68;;;11.20;99.90;;;;;;10417044;28;20438;-61
2021/05/27 11:30:37;;;;;;;23.85;10.10;;;11.20;99.90;;;;;;10417342;28;20095;-60
2021/05/27 11:35:39;;;;;;;28.40;9.30;;;11.10;99.90;;;;;;10417118;28;20488;-59
2021/05/27 11:40:48;;;;;;;28.08;10.98;;;11.00;99.90;;;;;;10416459;28;20049;-59
2021/05/27 11:45:53;;;;;;;28.52;10.80;;;11.10;99.90;;;;;;10416693;28;20045;-60
2021/05/27 11:51:12;;;;;;;32.53;12.20;;;11.20;99.90;;;;;;10416136;28;20056;-61
2021/05/27 11:56:42;;;;;;;23.05;11.02;;;11.30;99.90;;;;;;10416136;28;20056;-60
2021/05/27 12:01:58;;;;;;;27.08;10.80;;;11.20;99.90;;;;;;10416217;28;20095;-62
2021/05/27 12:07:12;;;;;;;27.15;10.57;;;11.20;99.90;;;;;;10415940;28;20041;-61
2021/05/27 12:12:31;;;;;;;20.50;9.02;;;11.20;99.90;;;;;;10415735;28;20042;-60
2021/05/27 12:17:39;;;;;;;14.00;7.72;;;11.20;99.90;;;;;;10415843;28;20045;-59
2021/05/27 12:22:53;;;;;;;14.90;7.28;;;11.20;99.90;;;;;;10415930;28;20045;-61
2021/05/27 12:27:59;;;;;;;22.88;9.20;;;11.10;99.90;;;;;;10415413;28;20037;-60
2021/05/27 12:33:03;;;;;;;21.35;9.13;;;11.30;99.90;;;;;;10415735;28;20045;-60
2021/05/27 12:38:24;;;;;;;15.32;7.75;;;11.70;99.90;;;;;;10415309;28;20047;-61
2021/05/27 12:43:32;;;;;;;15.10;8.20;;;11.90;99.90;;;;;;10415027;28;20075;-60
2021/05/27 12:48:52;;;;;;;18.92;8.05;;;12.00;99.90;;;;;;10413986;28;20536;-61
2021/05/27 12:53:57;;;;;;;20.17;7.75;;;11.80;99.90;;;;;;10414816;28;20053;-61
2021/05/27 12:59:02;;;;;;;16.83;8.10;;;11.80;99.90;;;;;;10414820;28;20091;-61
2021/05/27 13:04:07;;;;;;;17.55;8.68;;;11.70;99.90;;;;;;10414922;28;20037;-61
2021/05/27 13:09:20;;;;;;;12.52;7.75;;;11.70;99.90;;;;;;10414325;28;20535;-60
2021/05/27 13:14:25;;;;;;;16.45;7.88;;;11.70;99.90;;;;;;10412775;28;20046;-63
2021/05/27 13:19:27;;;;;;;13.95;8.32;;;11.70;99.90;;;;;;10413153;28;20482;-60
2021/05/27 13:24:41;;;;;;;12.77;7.75;;;11.70;99.90;;;;;;10418858;28;20056;-60
2021/05/27 13:29:52;;;;;;;19.35;8.57;;;11.80;99.90;;;;;;10422082;28;20051;-60
2021/05/27 13:35:01;;;;;;;15.80;8.23;;;12.00;99.90;;;;;;10421599;28;20048;-60
2021/05/27 13:40:17;;;;;;;14.52;7.80;;;12.30;99.90;;;;;;10421281;28;20037;-60
2021/05/27 13:45:22;;;;;;;18.08;7.95;;;12.30;99.90;;;;;;10421923;28;20045;-60
2021/05/27 13:50:29;;;;;;;18.85;7.15;;;12.10;99.90;;;;;;10421237;28;20053;-59
2021/05/27 13:55:37;;;;;;;17.27;8.15;;;12.10;99.90;;;;;;10420609;28;20466;-61
2021/05/27 14:00:39;;;;;;;16.25;7.55;;;11.90;99.90;;;;;;10420722;28;20046;-62
2021/05/27 14:05:54;;;;;;;16.98;5.10;;;11.80;99.90;;;;;;10420949;28;20125;-61
2021/05/27 14:10:56;;;;;;;9.98;4.28;;;11.70;99.90;;;;;;10420516;28;20072;-61
2021/05/27 14:15:58;;;;;;;21.17;5.20;;;11.70;99.90;;;;;;10419797;28;20042;-60
2021/05/27 14:21:00;;;;;;;11.63;4.65;;;11.70;99.90;;;;;;10420086;28;20053;-61
2021/05/27 14:26:02;;;;;;;10.52;4.10;;;11.90;99.90;;;;;;10419330;28;20382;-62
2021/05/27 14:31:04;;;;;;;18.75;5.05;;;11.90;99.90;;;;;;10420287;28;20056;-60
2021/05/27 14:36:06;;;;;;;14.10;3.83;;;12.00;99.90;;;;;;10417754;28;20470;-60
2021/05/27 14:41:10;;;;;;;17.83;3.80;;;12.10;99.90;;;;;;10418990;28;20385;-60
2021/05/27 14:46:12;;;;;;;13.20;2.70;;;12.10;99.90;;;;;;10418725;28;20042;-61
2021/05/27 14:51:14;;;;;;;9.00;2.17;;;12.10;99.90;;;;;;10418279;28;20488;-61
2021/05/27 14:56:16;;;;;;;6.22;2.00;;;12.20;99.90;;;;;;10417464;28;20045;-60
2021/05/27 15:01:18;;;;;;;13.10;2.10;;;12.10;99.90;;;;;;10418184;28;20056;-60
2021/05/27 15:06:21;;;;;;;3.53;2.08;;;12.20;99.90;;;;;;10419144;28;20117;-61
2021/05/27 15:11:23;;;;;;;7.82;2.10;;;12.20;99.90;;;;;;10417519;28;20053;-61
2021/05/27 15:16:25;;;;;;;8.65;3.13;;;12.20;99.90;;;;;;10417677;28;20047;-61
2021/05/27 15:21:27;;;;;;;6.78;1.92;;;12.20;99.90;;;;;;10417363;28;20403;-62
2021/05/27 15:26:29;;;;;;;9.10;2.45;;;12.20;99.90;;;;;;10417086;28;20045;-61
2021/05/27 15:31:31;;;;;;;9.68;2.22;;;12.20;99.90;;;;;;10417005;28;20405;-61
2021/05/27 15:36:37;;;;;;;13.50;2.50;;;12.30;99.90;;;;;;10417080;28;20045;-61
2021/05/27 15:41:39;;;;;;;6.38;2.47;;;12.30;99.90;;;;;;10417071;28;20064;-60
2021/05/27 15:46:41;;;;;;;9.32;2.78;;;12.30;99.90;;;;;;10414925;28;20041;-61
2021/05/27 15:51:43;;;;;;;8.75;2.60;;;12.40;99.90;;;;;;10416865;28;20057;-60
2021/05/27 15:56:45;;;;;;;6.93;2.60;;;12.50;99.90;;;;;;10416004;28;20096;-61
2021/05/27 16:01:47;;;;;;;9.85;3.25;;;12.30;99.90;;;;;;10415621;28;20524;-61
2021/05/27 16:06:49;;;;;;;12.43;3.28;;;12.30;99.90;;;;;;10414283;28;20500;-60
2021/05/27 16:11:51;;;;;;;11.88;3.63;;;12.40;99.90;;;;;;10415384;28;20433;-61
2021/05/27 16:16:53;;;;;;;5.40;2.60;;;12.60;99.90;;;;;;10415390;28;20049;-61
2021/05/27 16:21:55;;;;;;;5.43;2.67;;;12.70;99.90;;;;;;10415609;28;20076;-61
2021/05/27 16:26:57;;;;;;;8.45;2.97;;;12.70;99.90;;;;;;10413766;28;20159;-61
2021/05/27 16:31:59;;;;;;;7.43;3.47;;;12.70;99.90;;;;;;10415701;28;20045;-60
2021/05/27 16:42:23;;;;;;;10.45;2.92;;;12.70;99.90;;;;;;10414737;28;20072;-62
2021/05/27 16:47:25;;;;;;;6.40;2.20;;;12.90;99.90;;;;;;10414837;28;20041;-60
2021/05/27 16:52:27;;;;;;;4.07;2.03;;;12.80;99.90;;;;;;10414755;28;20049;-61
2021/05/27 16:57:29;;;;;;;8.80;2.38;;;12.70;99.90;;;;;;10417232;28;20037;-62
2021/05/27 17:02:31;;;;;;;9.63;2.97;;;12.80;99.90;;;;;;10422560;28;20038;-62
2021/05/27 17:07:33;;;;;;;8.45;2.17;;;12.70;99.90;;;;;;10422305;28;20050;-61
2021/05/27 17:12:36;;;;;;;11.73;3.50;;;12.60;99.90;;;;;;10420907;28;20366;-61
2021/05/27 17:17:38;;;;;;;8.65;3.30;;;12.50;99.90;;;;;;10421949;28;20046;-60
2021/05/27 17:22:42;;;;;;;10.65;2.65;;;12.60;99.90;;;;;;10421907;28;20044;-62
2021/05/27 17:27:45;;;;;;;6.65;2.30;;;12.60;99.90;;;;;;10421618;28;20046;-60
2021/05/27 17:32:48;;;;;;;12.55;3.85;;;12.60;99.90;;;;;;10421893;28;20076;-61
2021/05/27 17:37:50;;;;;;;7.72;3.22;;;12.50;99.90;;;;;;10421043;28;20417;-60
2021/05/27 17:42:52;;;;;;;6.10;2.65;;;12.50;99.90;;;;;;10419954;28;20045;-61
2021/05/27 17:47:54;;;;;;;7.93;2.47;;;12.40;99.90;;;;;;10420736;28;20381;-61
2021/05/27 17:52:56;;;;;;;6.38;2.92;;;12.30;99.90;;;;;;10421157;28;20060;-61
2021/05/27 17:57:58;;;;;;;11.13;2.88;;;12.30;99.90;;;;;;10420802;28;20048;-61
2021/05/27 18:03:00;;;;;;;8.15;2.42;;;12.10;99.90;;;;;;10420367;28;20108;-61
2021/05/27 18:08:03;;;;;;;6.05;2.35;;;12.20;99.90;;;;;;10419703;28;20073;-61
2021/05/27 18:13:04;;;;;;;7.00;3.25;;;12.20;99.90;;;;;;10419814;28;20045;-60
2021/05/27 18:18:08;;;;;;;9.63;3.28;;;12.20;99.90;;;;;;10420674;28;20045;-60
2021/05/27 18:23:10;;;;;;;11.38;2.67;;;12.20;99.90;;;;;;10419782;28;20041;-59
2021/05/27 18:28:15;;;;;;;10.18;2.92;;;12.10;99.90;;;;;;10418229;28;20045;-61
2021/05/27 18:33:17;;;;;;;5.35;3.13;;;12.10;99.90;;;;;;10419599;28;20046;-61
2021/05/27 18:38:19;;;;;;;9.75;2.90;;;12.10;99.90;;;;;;10418202;28;20041;-62
2021/05/27 18:43:23;;;;;;;9.20;3.40;;;12.10;99.90;;;;;;10417439;28;20041;-61
2021/05/27 18:48:25;;;;;;;9.60;3.35;;;12.10;99.90;;;;;;10418476;28;20064;-60
2021/05/27 18:53:27;;;;;;;15.57;3.50;;;12.10;99.90;;;;;;10419629;28;20084;-60
2021/05/27 18:58:29;;;;;;;8.88;3.05;;;12.00;99.90;;;;;;10418524;28;20048;-62
2021/05/27 19:03:31;;;;;;;7.18;2.67;;;12.00;99.90;;;;;;10417882;28;20055;-61
2021/05/27 19:08:33;;;;;;;5.60;2.50;;;12.10;99.90;;;;;;10417962;28;20421;-60
2021/05/27 19:13:35;;;;;;;11.43;3.10;;;12.20;99.90;;;;;;10399963;28;20045;-59
2021/05/27 19:18:37;;;;;;;7.78;2.45;;;12.10;99.90;;;;;;10417364;28;20049;-62
2021/05/27 19:23:39;;;;;;;5.93;2.22;;;12.10;99.90;;;;;;10416589;28;20037;-60
2021/05/27 19:28:42;;;;;;;6.38;2.03;;;12.00;99.90;;;;;;10416069;28;20045;-60
2021/05/27 19:33:44;;;;;;;8.55;2.45;;;12.00;99.90;;;;;;10416978;28;20053;-60
2021/05/27 19:38:46;;;;;;;9.95;2.60;;;11.80;99.90;;;;;;10416714;28;20474;-60
2021/05/27 19:43:49;;;;;;;8.00;2.42;;;11.80;99.90;;;;;;10416631;28;20045;-61
2021/05/27 19:48:53;;;;;;;9.13;2.13;;;11.80;99.90;;;;;;10415684;28;20128;-60
2021/05/27 19:53:55;;;;;;;6.05;2.53;;;11.70;99.90;;;;;;10415839;28;20481;-61
2021/05/27 19:58:57;;;;;;;9.50;2.53;;;11.70;99.90;;;;;;10416066;28;20378;-61
2021/05/27 20:03:59;;;;;;;5.03;2.25;;;11.70;99.90;;;;;;10415624;28;20046;-60
2021/05/27 20:09:02;;;;;;;5.93;2.80;;;11.60;99.90;;;;;;10415734;28;20045;-61
2021/05/27 20:14:04;;;;;;;7.25;2.42;;;11.50;99.90;;;;;;10415268;28;20389;-61
2021/05/27 20:19:05;;;;;;;8.88;2.97;;;11.50;99.90;;;;;;10415789;28;20041;-60
2021/05/27 20:24:08;;;;;;;7.43;2.90;;;11.30;99.90;;;;;;10414720;28;20509;-61
2021/05/27 20:29:10;;;;;;;7.35;2.72;;;11.20;99.90;;;;;;10413788;28;20055;-60
2021/05/27 20:34:11;;;;;;;8.25;2.67;;;11.10;99.90;;;;;;10424388;28;20041;-61
2021/05/27 20:39:13;;;;;;;7.22;3.17;;;11.00;99.90;;;;;;10428858;28;20044;-60
2021/05/27 20:44:16;;;;;;;9.05;2.75;;;10.90;99.90;;;;;;10429156;28;20045;-61
2021/05/27 20:49:18;;;;;;;6.60;2.63;;;10.80;99.90;;;;;;10427634;28;20049;-61
2021/05/27 20:54:20;;;;;;;10.93;2.90;;;10.80;99.90;;;;;;10428589;28;20113;-61
2021/05/27 20:59:22;;;;;;;7.72;3.15;;;10.70;99.90;;;;;;10427313;28;20046;-60
2021/05/27 21:04:24;;;;;;;7.50;3.25;;;10.60;99.90;;;;;;10428043;28;20362;-60
2021/05/27 21:09:26;;;;;;;7.60;3.35;;;10.50;99.90;;;;;;10428589;28;20049;-61
2021/05/27 21:14:28;;;;;;;11.95;3.72;;;10.40;99.90;;;;;;10427911;28;20057;-61
2021/05/27 21:19:30;;;;;;;10.70;4.03;;;10.40;99.90;;;;;;10428376;28;20060;-60
2021/05/27 21:24:32;;;;;;;8.02;3.08;;;10.30;99.90;;;;;;10427590;28;20041;-61
2021/05/27 21:29:33;;;;;;;8.45;2.92;;;10.20;99.90;;;;;;10427716;28;20068;-60
2021/05/27 21:34:35;;;;;;;8.43;3.33;;;10.20;99.90;;;;;;10427307;28;20049;-60
2021/05/27 21:39:38;;;;;;;6.90;2.90;;;10.10;99.90;;;;;;10427648;28;20049;-61
2021/05/27 21:44:40;;;;;;;6.25;3.50;;;10.00;99.90;;;;;;10423046;28;20367;-61
2021/05/27 21:49:42;;;;;;;7.63;3.00;;;9.90;99.90;;;;;;10420594;28;20494;-60
2021/05/27 21:54:44;;;;;;;5.63;3.10;;;9.90;99.90;;;;;;10421161;28;20037;-60
2021/05/27 21:59:46;;;;;;;11.48;3.10;;;9.80;99.90;;;;;;10419716;28;20148;-60
2021/05/27 22:04:48;;;;;;;7.93;3.20;;;9.70;99.90;;;;;;10420132;28;20056;-61
2021/05/27 22:09:50;;;;;;;7.88;3.33;;;9.70;99.90;;;;;;10421074;28;20057;-60
2021/05/27 22:14:52;;;;;;;12.57;3.90;;;9.60;99.90;;;;;;10419676;28;20362;-60
2021/05/27 22:19:54;;;;;;;9.27;3.90;;;9.60;99.90;;;;;;10419290;28;20052;-62
2021/05/27 22:24:56;;;;;;;9.15;3.55;;;9.50;99.90;;;;;;10419540;28;20041;-60
2021/05/27 22:30:00;;;;;;;6.50;3.50;;;9.50;99.90;;;;;;10419450;28;20049;-61
2021/05/27 22:35:03;;;;;;;6.93;3.15;;;9.50;99.90;;;;;;10419615;28;20045;-60
2021/05/27 22:40:06;;;;;;;8.48;3.78;;;9.40;99.90;;;;;;10417779;28;20389;-61
2021/05/27 22:45:09;;;;;;;8.77;4.22;;;9.40;99.90;;;;;;10418641;28;20508;-60
2021/05/27 22:50:15;;;;;;;8.98;4.03;;;9.30;99.90;;;;;;10418102;28;20409;-61
2021/05/27 22:55:17;;;;;;;9.40;3.53;;;9.40;99.90;;;;;;10418799;28;20048;-60
2021/05/27 23:00:21;;;;;;;8.68;4.47;;;9.30;99.90;;;;;;10418253;28;20045;-60
2021/05/27 23:05:23;;;;;;;19.13;5.00;;;9.20;99.90;;;;;;10417838;28;20053;-60
2021/05/27 23:10:25;;;;;;;14.88;4.28;;;9.10;99.90;;;;;;10418104;28;20047;-62
2021/05/27 23:15:27;;;;;;;8.75;3.55;;;9.10;99.90;;;;;;10417571;28;20496;-61
2021/05/27 23:20:29;;;;;;;13.43;3.88;;;9.00;99.90;;;;;;10417644;28;20048;-60
2021/05/27 23:25:31;;;;;;;8.95;3.33;;;9.00;99.90;;;;;;10416873;28;20038;-59
2021/05/27 23:30:33;;;;;;;8.45;4.43;;;9.00;99.90;;;;;;10417632;28;20045;-61
2021/05/27 23:35:35;;;;;;;8.77;5.13;;;9.00;99.90;;;;;;10416713;28;20389;-61
2021/05/27 23:40:37;;;;;;;10.18;3.85;;;8.90;99.90;;;;;;10416702;28;20045;-62
2021/05/27 23:45:39;;;;;;;10.55;5.15;;;8.80;99.90;;;;;;10416578;28;20073;-60
2021/05/27 23:50:41;;;;;;;9.25;4.55;;;8.80;99.90;;;;;;10416288;28;20087;-61
2021/05/27 23:55:43;;;;;;;8.55;4.60;;;8.80;99.90;;;;;;10416880;28;20049;-60
